Time;durP1;ratioP1;P1;durP2;ratioP2;P2;SDS_P1;SDS_P2;PMS_P1;PMS_P2;Temp;Humidity;BMP_temperature;BMP_pressure;BME280_temperature;BME280_humidity;BME280_pressure;Samples;Min_cycle;Max_cycle;Signal;HPM_P1;HPM_P2
2022/07/08 00:00:17;;;;;;;0.00;0.00;;;;;;;17.76;77.03;100905.13;1752135;80;26525;-86
2022/07/08 00:02:46;;;;;;;0.42;0.42;;;;;;;17.73;77.20;100902.05;1750266;80;25921;-84
2022/07/08 00:05:12;;;;;;;1.30;1.20;;;;;;;17.68;76.98;100905.44;1748178;80;25284;-86
2022/07/08 00:07:38;;;;;;;0.00;0.00;;;;;;;17.59;77.01;100908.14;1755496;80;25808;-86
2022/07/08 00:10:06;;;;;;;0.00;0.00;;;;;;;17.52;77.14;100906.84;1752710;80;27446;-84
2022/07/08 00:12:33;;;;;;;0.00;0.00;;;;;;;17.49;77.46;100899.67;1754056;80;26520;-88
2022/07/08 00:14:59;;;;;;;0.00;0.00;;;;;;;17.45;77.72;100909.31;1757350;79;25682;-85
2022/07/08 00:17:27;;;;;;;0.00;0.00;;;;;;;17.41;77.99;100906.72;1747980;80;25852;-86
2022/07/08 00:19:53;;;;;;;0.00;0.00;;;;;;;17.38;78.08;100908.53;1753261;80;26463;-85
2022/07/08 00:22:19;;;;;;;0.00;0.00;;;;;;;17.35;78.31;100907.09;1755508;79;28547;-86
2022/07/08 00:24:46;;;;;;;0.00;0.00;;;;;;;17.35;78.47;100905.75;1766785;79;26469;-84
2022/07/08 00:27:13;;;;;;;0.00;0.00;;;;;;;17.33;78.53;100907.02;1758348;80;26665;-85
2022/07/08 00:29:39;;;;;;;0.00;0.00;;;;;;;17.28;78.75;100902.81;1749689;80;25729;-86
2022/07/08 00:32:06;;;;;;;0.00;0.00;;;;;;;17.25;78.99;100905.44;1766202;79;26498;-85
2022/07/08 00:34:32;;;;;;;0.30;0.30;;;;;;;17.23;79.06;100899.41;1752488;80;28257;-85
2022/07/08 00:36:59;;;;;;;0.00;0.00;;;;;;;17.21;79.18;100896.11;1753898;80;25840;-83
2022/07/08 00:39:26;;;;;;;0.00;0.00;;;;;;;17.20;79.13;100897.66;1755374;80;26385;-83
2022/07/08 00:41:52;;;;;;;0.00;0.00;;;;;;;17.18;79.10;100896.53;1752913;80;25867;-86
2022/07/08 00:44:18;;;;;;;0.00;0.00;;;;;;;17.18;79.03;100895.19;1762968;79;25783;-83
2022/07/08 00:46:45;;;;;;;0.00;0.00;;;;;;;17.18;78.84;100902.47;1763176;79;28287;-83
2022/07/08 00:49:12;;;;;;;0.00;0.00;;;;;;;17.15;78.73;100906.44;1758919;79;25858;-85
2022/07/08 00:51:40;;;;;;;0.00;0.00;;;;;;;17.15;78.70;100905.64;1767708;80;25833;-83
2022/07/08 00:54:07;;;;;;;0.00;0.00;;;;;;;17.14;78.63;100909.38;1750654;80;26574;-87
2022/07/08 00:56:33;;;;;;;0.00;0.00;;;;;;;17.12;78.53;100910.12;1753052;80;25809;-85
2022/07/08 00:59:00;;;;;;;0.00;0.00;;;;;;;17.09;78.35;100906.50;1753014;80;27436;-87
2022/07/08 01:01:27;;;;;;;0.35;0.35;;;;;;;17.07;78.37;100909.95;1766960;80;26095;-85
2022/07/08 01:03:54;;;;;;;0.00;0.00;;;;;;;17.08;78.56;100914.33;1769670;78;25331;-85
2022/07/08 01:06:20;;;;;;;0.00;0.00;;;;;;;17.11;78.49;100916.06;1781737;79;26514;-84
2022/07/08 01:08:47;;;;;;;0.00;0.00;;;;;;;17.10;78.62;100919.84;1774534;78;25766;-85
2022/07/08 01:11:14;;;;;;;0.35;0.35;;;;;;;17.11;78.73;100919.31;1757343;79;27463;-83
2022/07/08 01:13:41;;;;;;;0.00;0.00;;;;;;;17.09;78.78;100914.10;1774339;79;26068;-84
2022/07/08 01:16:08;;;;;;;0.00;0.00;;;;;;;17.09;78.80;100914.62;1768358;80;25763;-84
2022/07/08 01:18:34;;;;;;;0.00;0.00;;;;;;;17.06;78.74;100919.98;1764359;79;25968;-84
2022/07/08 01:21:01;;;;;;;0.00;0.00;;;;;;;17.07;78.83;100920.78;1762689;79;27083;-82
2022/07/08 01:23:27;;;;;;;0.00;0.00;;;;;;;17.04;78.81;100915.83;1765420;79;27703;-83
2022/07/08 01:25:55;;;;;;;0.00;0.00;;;;;;;17.02;79.03;100924.69;1780251;79;25779;-85
2022/07/08 01:28:22;;;;;;;0.00;0.00;;;;;;;17.00;79.23;100918.13;1750493;80;25831;-85
2022/07/08 01:30:48;;;;;;;0.20;0.20;;;;;;;17.00;79.30;100925.44;1743928;80;25508;-84
2022/07/08 01:33:14;;;;;;;0.00;0.00;;;;;;;16.95;79.57;100928.29;1744246;80;26540;-83
2022/07/08 01:35:41;;;;;;;0.25;0.25;;;;;;;16.94;79.77;100921.72;1750850;80;27457;-86
2022/07/08 01:38:07;;;;;;;0.00;0.00;;;;;;;16.93;79.89;100924.98;1755316;80;25323;-83
2022/07/08 01:40:33;;;;;;;0.00;0.00;;;;;;;16.93;80.14;100928.20;1757207;80;25855;-85
2022/07/08 01:43:00;;;;;;;0.00;0.00;;;;;;;16.93;80.40;100924.14;1760346;79;25790;-84
2022/07/08 01:45:26;;;;;;;0.00;0.00;;;;;;;16.94;80.42;100927.97;1759004;80;26527;-84
2022/07/08 01:47:52;;;;;;;0.00;0.00;;;;;;;16.92;80.29;100926.01;1732816;80;28320;-84
2022/07/08 01:50:19;;;;;;;0.00;0.00;;;;;;;16.90;80.27;100925.41;1744936;80;25923;-84
2022/07/08 01:52:45;;;;;;;0.00;0.00;;;;;;;16.90;80.35;100931.33;1754307;80;25871;-84
2022/07/08 01:55:11;;;;;;;0.00;0.00;;;;;;;16.90;80.53;100927.27;1745612;80;25857;-85
2022/07/08 01:57:37;;;;;;;0.00;0.00;;;;;;;16.89;80.57;100926.98;1756863;79;25800;-85
2022/07/08 02:00:06;;;;;;;0.00;0.00;;;;;;;16.86;80.61;100931.47;1772423;79;27457;-85
2022/07/08 02:02:34;;;;;;;0.00;0.00;;;;;;;16.80;80.63;100931.00;1765640;80;25793;-84
2022/07/08 02:05:00;;;;;;;0.00;0.00;;;;;;;16.76;80.88;100932.48;1759035;78;25735;-84
2022/07/08 02:07:27;;;;;;;0.00;0.00;;;;;;;16.69;80.87;100931.18;1776703;79;25496;-83
2022/07/08 02:09:53;;;;;;;0.00;0.00;;;;;;;16.60;80.87;100933.83;1762538;78;25838;-86
2022/07/08 02:12:21;;;;;;;8.68;3.90;;;;;;;16.54;81.06;100935.22;1758230;80;26189;-83
2022/07/08 02:14:53;;;;;;;7.50;3.90;;;;;;;16.52;80.96;100942.21;1759448;80;25784;-84
2022/07/08 02:17:22;;;;;;;5.37;4.37;;;;;;;16.53;81.10;100946.55;1786793;77;25724;-85
2022/07/08 02:19:49;;;;;;;6.78;4.50;;;;;;;16.54;81.11;100943.34;1773389;78;26279;-84
2022/07/08 02:22:16;;;;;;;8.38;4.53;;;;;;;16.54;81.21;100940.62;1771983;78;26672;-83
2022/07/08 02:24:43;;;;;;;10.23;4.20;;;;;;;16.56;81.12;100939.89;1780409;78;27442;-85
2022/07/08 02:27:09;;;;;;;5.62;4.70;;;;;;;16.58;81.04;100939.14;1762198;78;25947;-84
2022/07/08 02:29:36;;;;;;;5.03;4.28;;;;;;;16.59;81.17;100943.01;1768538;78;25729;-85
2022/07/08 02:32:03;;;;;;;9.80;4.80;;;;;;;16.60;81.56;100940.59;1756499;80;25744;-83
2022/07/08 02:34:29;;;;;;;7.58;4.17;;;;;;;16.59;81.50;100941.66;1786078;79;25811;-84
2022/07/08 02:36:56;;;;;;;7.78;4.42;;;;;;;16.58;81.89;100948.09;1763783;78;28298;-84
2022/07/08 02:39:22;;;;;;;7.28;4.08;;;;;;;16.59;82.11;100955.70;1774422;78;25844;-85
2022/07/08 02:41:49;;;;;;;6.40;4.10;;;;;;;16.59;82.24;100951.13;1750807;80;25965;-86
2022/07/08 02:44:16;;;;;;;6.33;4.53;;;;;;;16.62;82.30;100953.89;1764187;78;26231;-84
2022/07/08 02:46:42;;;;;;;7.37;4.67;;;;;;;16.62;82.29;100952.54;1753151;80;25667;-85
2022/07/08 02:49:09;;;;;;;7.00;4.83;;;;;;;16.64;82.49;100953.15;1756199;78;27455;-85
2022/07/08 02:51:36;;;;;;;5.17;4.25;;;;;;;16.68;82.43;100953.05;1775818;79;25852;-84
2022/07/08 02:54:04;;;;;;;7.47;4.65;;;;;;;16.68;82.59;100955.20;1762981;78;26360;-84
2022/07/08 02:56:33;;;;;;;8.70;4.67;;;;;;;16.70;82.49;100952.30;1764994;78;25976;-84
2022/07/08 02:59:01;;;;;;;10.08;4.90;;;;;;;16.72;82.13;100958.33;1767726;78;25356;-82
2022/07/08 03:01:27;;;;;;;9.10;5.12;;;;;;;16.72;81.99;100955.62;1767711;80;27445;-85
2022/07/08 03:03:53;;;;;;;7.80;4.17;;;;;;;16.73;81.97;100954.04;1769224;78;26401;-83
2022/07/08 03:06:20;;;;;;;5.95;4.85;;;;;;;16.74;81.99;100954.33;1764210;80;26421;-84
2022/07/08 03:08:46;;;;;;;8.38;5.20;;;;;;;16.74;82.06;100950.81;1766016;80;25847;-84
2022/07/08 03:11:12;;;;;;;6.50;5.03;;;;;;;16.74;81.78;100948.91;1766352;78;25943;-88
2022/07/08 03:13:39;;;;;;;7.85;5.40;;;;;;;16.78;81.75;100956.09;1758596;80;27618;-85
2022/07/08 03:16:06;;;;;;;9.70;4.55;;;;;;;16.81;81.58;100958.34;1750856;80;25361;-85
2022/07/08 03:18:34;;;;;;;8.20;5.58;;;;;;;16.84;81.55;100961.46;1756922;79;25343;-83
2022/07/08 03:21:03;;;;;;;8.98;4.75;;;;;;;16.88;81.55;100967.25;1757096;80;25825;-85
2022/07/08 03:23:32;;;;;;;6.30;4.35;;;;;;;16.90;81.52;100963.28;1758760;79;25795;-85
2022/07/08 03:25:58;;;;;;;6.33;4.45;;;;;;;16.93;81.46;100970.14;1771837;79;27512;-83
2022/07/08 03:28:25;;;;;;;10.25;5.05;;;;;;;16.94;81.26;100973.14;1763645;80;25906;-84
2022/07/08 03:30:51;;;;;;;8.30;4.35;;;;;;;16.92;80.95;100973.88;1750808;80;25807;-83
2022/07/08 03:33:17;;;;;;;9.05;4.53;;;;;;;16.91;80.91;100975.75;1759275;80;25945;-85
2022/07/08 03:35:44;;;;;;;8.90;4.90;;;;;;;16.90;81.00;100971.41;1789795;78;25943;-84
2022/07/08 03:38:10;;;;;;;6.42;4.20;;;;;;;16.91;81.09;100974.40;1765778;79;27461;-86
2022/07/08 03:43:21;;;;;;;7.90;4.10;;;;;;;16.96;81.32;100978.64;1763928;80;25914;-83
2022/07/08 03:45:48;;;;;;;9.45;4.67;;;;;;;17.00;81.29;100980.38;1786474;78;25829;-85
2022/07/08 03:48:17;;;;;;;8.10;4.60;;;;;;;17.03;81.30;100978.59;1769755;78;25947;-84
2022/07/08 03:50:43;;;;;;;6.42;4.35;;;;;;;17.05;81.29;100981.08;1760854;80;27479;-85
2022/07/08 03:53:09;;;;;;;10.68;4.67;;;;;;;17.07;81.43;100983.03;1759321;79;26191;-86
2022/07/08 03:55:36;;;;;;;10.32;5.28;;;;;;;17.12;81.42;100984.57;1766489;78;25952;-85
2022/07/08 03:58:02;;;;;;;6.05;4.78;;;;;;;17.16;81.42;100987.14;1751157;80;25965;-85
2022/07/08 04:00:29;;;;;;;9.58;4.53;;;;;;;17.21;81.52;100988.67;1753568;80;25332;-83
2022/07/08 04:02:55;;;;;;;6.40;4.00;;;;;;;17.25;81.36;100989.88;1754041;80;27691;-84
2022/07/08 04:05:21;;;;;;;11.97;4.92;;;;;;;17.29;81.46;100985.16;1755814;80;26507;-85
2022/07/08 04:07:48;;;;;;;9.68;4.62;;;;;;;17.34;81.32;100983.15;1755472;80;25850;-85
2022/07/08 04:10:14;;;;;;;7.87;4.80;;;;;;;17.36;81.42;100989.17;1751820;80;25461;-84
2022/07/08 04:12:40;;;;;;;11.22;5.08;;;;;;;17.40;81.49;100993.09;1753717;80;26585;-83
2022/07/08 04:15:08;;;;;;;7.20;4.70;;;;;;;17.42;81.46;100994.53;1762953;79;27444;-84
2022/07/08 04:17:35;;;;;;;10.35;4.60;;;;;;;17.45;81.60;100997.33;1704904;80;27371;-84
2022/07/08 04:20:01;;;;;;;8.68;5.08;;;;;;;17.48;81.60;101000.93;1747850;80;25605;-85
2022/07/08 04:22:27;;;;;;;8.63;4.58;;;;;;;17.50;81.63;101001.56;1757700;79;25427;-84
2022/07/08 04:24:53;;;;;;;7.87;4.22;;;;;;;17.53;81.63;101006.03;1756391;80;26542;-85
2022/07/08 04:27:20;;;;;;;8.50;4.50;;;;;;;17.54;81.63;101006.32;1749209;80;27434;-85
2022/07/08 04:29:46;;;;;;;8.90;4.37;;;;;;;17.58;81.70;101002.11;1749125;80;25832;-83
2022/07/08 04:32:12;;;;;;;7.65;4.22;;;;;;;17.64;81.45;101009.34;1757048;80;25788;-85
2022/07/08 04:34:38;;;;;;;7.33;4.70;;;;;;;17.70;81.49;101003.58;1762641;79;25773;-85
2022/07/08 04:37:05;;;;;;;7.08;5.28;;;;;;;17.77;81.66;101013.00;1766367;79;25744;-84
2022/07/08 04:39:31;;;;;;;8.85;5.40;;;;;;;17.85;81.60;101018.95;1748454;80;27505;-84
2022/07/08 04:41:57;;;;;;;6.30;4.72;;;;;;;17.92;81.64;101012.12;1748781;80;26013;-85
2022/07/08 04:44:24;;;;;;;7.00;5.42;;;;;;;17.99;81.49;101022.34;1748402;80;25816;-86
2022/07/08 04:46:50;;;;;;;7.53;5.58;;;;;;;18.04;81.18;101021.15;1752744;80;25752;-85
2022/07/08 04:49:16;;;;;;;10.05;5.45;;;;;;;18.08;81.09;101019.64;1761688;79;25927;-85
2022/07/08 04:51:43;;;;;;;9.10;4.67;;;;;;;18.10;81.28;101012.94;1746790;80;27444;-85
2022/07/08 04:54:09;;;;;;;6.87;4.85;;;;;;;18.15;80.84;101015.81;1751894;80;25822;-83
2022/07/08 04:56:35;;;;;;;7.10;4.70;;;;;;;18.17;80.61;101016.94;1756691;79;25887;-85
2022/07/08 04:59:02;;;;;;;7.33;4.72;;;;;;;18.22;80.74;101017.09;1758021;80;25769;-85
2022/07/08 05:01:28;;;;;;;5.65;4.33;;;;;;;18.29;80.95;101020.54;1754973;80;25840;-85
2022/07/08 05:03:55;;;;;;;6.62;4.83;;;;;;;18.32;80.90;101021.45;1768029;80;27431;-84
2022/07/08 05:06:21;;;;;;;4.80;4.30;;;;;;;18.37;81.37;101027.01;1760642;80;26153;-85
2022/07/08 05:08:49;;;;;;;6.08;4.62;;;;;;;18.37;81.01;101027.01;1749000;80;25795;-85
2022/07/08 05:11:15;;;;;;;8.90;4.60;;;;;;;18.37;80.72;101037.86;1752171;80;26205;-83
2022/07/08 05:13:42;;;;;;;5.62;4.47;;;;;;;18.37;81.09;101030.55;1754238;80;25905;-84
2022/07/08 05:16:08;;;;;;;5.33;4.47;;;;;;;18.40;80.91;101030.11;1757529;80;28353;-84
2022/07/08 05:18:34;;;;;;;6.05;4.72;;;;;;;18.44;80.73;101035.94;1745681;80;25753;-85
2022/07/08 05:21:01;;;;;;;8.33;4.67;;;;;;;18.46;80.78;101045.50;1753148;80;26509;-85
2022/07/08 05:23:27;;;;;;;4.67;4.28;;;;;;;18.45;81.12;101041.13;1754368;80;26242;-85
2022/07/08 05:25:53;;;;;;;5.03;4.15;;;;;;;18.49;81.08;101045.59;1745329;80;25936;-84
2022/07/08 05:28:20;;;;;;;5.78;3.92;;;;;;;18.50;81.20;101045.87;1759906;80;27603;-85
2022/07/08 05:30:46;;;;;;;6.53;3.90;;;;;;;18.52;81.13;101042.95;1751434;80;25807;-85
2022/07/08 05:33:12;;;;;;;6.72;4.90;;;;;;;18.56;81.00;101049.05;1745332;80;25698;-85
2022/07/08 05:35:39;;;;;;;4.67;3.83;;;;;;;18.62;81.50;101058.99;1760200;81;26279;-84
2022/07/08 05:38:05;;;;;;;4.72;4.33;;;;;;;18.67;81.64;101061.83;1766876;80;25831;-84
2022/07/08 05:40:32;;;;;;;4.78;4.25;;;;;;;18.71;81.27;101060.31;1762344;80;28322;-85
2022/07/08 05:42:59;;;;;;;5.10;4.47;;;;;;;18.77;81.15;101059.42;1750363;80;26433;-84
2022/07/08 05:45:25;;;;;;;6.05;4.90;;;;;;;18.87;80.71;101051.55;1747406;80;25786;-84
2022/07/08 05:47:51;;;;;;;6.17;4.87;;;;;;;18.92;80.29;101057.13;1776615;79;25602;-84
2022/07/08 05:50:17;;;;;;;6.17;4.40;;;;;;;18.96;80.37;101056.97;1770130;79;26299;-83
2022/07/08 05:52:44;;;;;;;5.00;4.50;;;;;;;19.03;79.77;101059.03;1764887;80;27440;-85
2022/07/08 05:55:10;;;;;;;5.10;4.60;;;;;;;19.07;79.25;101061.62;1768877;80;25756;-84
2022/07/08 05:57:36;;;;;;;5.67;5.05;;;;;;;19.13;79.85;101069.35;1762059;80;25857;-84
2022/07/08 06:00:05;;;;;;;5.53;4.50;;;;;;;19.21;78.89;101064.94;1753283;81;25540;-84
2022/07/08 06:02:33;;;;;;;6.50;4.83;;;;;;;19.35;79.29;101064.26;1760722;80;25783;-85
2022/07/08 06:04:59;;;;;;;7.87;4.67;;;;;;;19.52;79.43;101066.59;1752110;80;27451;-85
2022/07/08 06:07:25;;;;;;;5.97;5.25;;;;;;;19.64;79.68;101062.83;1752562;80;26094;-85
2022/07/08 06:09:52;;;;;;;6.78;6.08;;;;;;;19.82;79.14;101076.86;1763403;80;25775;-83
2022/07/08 06:12:18;;;;;;;6.20;5.62;;;;;;;19.96;78.51;101077.73;1747274;80;25820;-83
2022/07/08 06:14:44;;;;;;;6.10;5.50;;;;;;;20.09;77.91;101073.95;1751225;80;25952;-85
2022/07/08 06:17:10;;;;;;;6.45;5.80;;;;;;;20.10;77.09;101075.62;1769011;80;27553;-84
2022/07/08 06:19:37;;;;;;;7.08;5.85;;;;;;;20.04;76.65;101081.98;1753029;80;25999;-84
2022/07/08 06:22:03;;;;;;;6.15;5.50;;;;;;;19.99;76.13;101080.52;1762592;80;25898;-83
2022/07/08 06:24:30;;;;;;;6.60;6.00;;;;;;;19.93;75.88;101085.55;1755610;80;26268;-84
2022/07/08 06:26:56;;;;;;;8.15;6.75;;;;;;;19.96;76.90;101087.26;1750406;80;25766;-85
2022/07/08 06:29:22;;;;;;;6.67;6.12;;;;;;;20.04;76.97;101086.61;1750049;80;27454;-85
2022/07/08 06:31:49;;;;;;;7.40;6.80;;;;;;;20.09;76.46;101091.63;1767834;80;25780;-84
2022/07/08 06:34:15;;;;;;;7.87;7.08;;;;;;;20.15;76.66;101089.84;1766566;80;26262;-84
2022/07/08 06:36:41;;;;;;;10.28;7.17;;;;;;;20.21;76.23;101093.02;1747143;80;26368;-85
2022/07/08 06:39:08;;;;;;;7.50;6.80;;;;;;;20.25;75.86;101101.00;1753302;80;26403;-83
2022/07/08 06:41:34;;;;;;;10.00;6.90;;;;;;;20.30;75.56;101099.21;1749833;80;28283;-83
2022/07/08 06:44:01;;;;;;;6.72;6.12;;;;;;;20.23;75.10;101093.06;1751311;80;25351;-85
2022/07/08 06:46:28;;;;;;;6.28;5.67;;;;;;;20.25;74.78;101092.28;1751036;80;25848;-85
2022/07/08 06:48:54;;;;;;;6.55;5.92;;;;;;;20.30;74.16;101092.41;1754336;80;25831;-84
2022/07/08 06:51:21;;;;;;;9.45;5.55;;;;;;;20.40;74.48;101087.18;1753288;80;25286;-84
2022/07/08 06:56:32;;;;;;;6.60;5.12;;;;;;;20.75;74.36;101081.13;1750457;80;26541;-85
2022/07/08 06:58:59;;;;;;;6.30;5.37;;;;;;;20.98;74.26;101079.41;1744851;80;25801;-85
2022/07/08 07:01:25;;;;;;;6.80;5.65;;;;;;;21.07;73.90;101079.31;1747667;80;25892;-84
2022/07/08 07:03:51;;;;;;;5.10;4.60;;;;;;;21.09;73.61;101079.89;1760451;79;25870;-82
2022/07/08 07:06:17;;;;;;;8.33;4.10;;;;;;;21.06;72.36;101080.41;1787304;78;27568;-84
2022/07/08 07:08:46;;;;;;;3.80;3.45;;;;;;;21.00;72.45;101077.27;1772262;78;25771;-84
2022/07/08 07:11:12;;;;;;;4.20;3.47;;;;;;;20.96;71.91;101081.52;1757027;80;25406;-84
2022/07/08 07:13:38;;;;;;;4.05;3.27;;;;;;;20.94;71.64;101081.77;1761365;79;26397;-84
2022/07/08 07:16:05;;;;;;;3.83;2.92;;;;;;;20.87;71.03;101076.98;1750929;80;26554;-84
2022/07/08 07:18:31;;;;;;;2.05;1.90;;;;;;;20.81;70.36;101081.25;1761704;79;28447;-84
2022/07/08 07:20:58;;;;;;;2.40;1.85;;;;;;;20.73;69.27;101086.52;1767510;79;25803;-84
2022/07/08 07:23:24;;;;;;;2.17;1.92;;;;;;;20.65;69.64;101076.02;1750148;80;25860;-84
2022/07/08 07:25:50;;;;;;;2.42;2.10;;;;;;;20.66;69.89;101077.13;1744368;80;25808;-84
2022/07/08 07:28:16;;;;;;;3.52;3.20;;;;;;;20.81;70.22;101073.08;1748760;80;25748;-84
2022/07/08 07:30:43;;;;;;;3.00;2.58;;;;;;;21.00;70.36;101070.45;1744969;80;27417;-84
2022/07/08 07:33:09;;;;;;;3.75;2.90;;;;;;;21.20;70.86;101076.30;1763531;80;25946;-85
2022/07/08 07:35:36;;;;;;;5.15;3.20;;;;;;;21.29;69.42;101074.30;1754094;80;26020;-84
2022/07/08 07:38:02;;;;;;;4.80;2.80;;;;;;;21.37;69.34;101068.97;1763126;80;25869;-85
2022/07/08 07:40:29;;;;;;;2.80;2.60;;;;;;;21.51;69.33;101069.77;1763840;80;26011;-83
2022/07/08 07:42:55;;;;;;;5.83;2.60;;;;;;;21.70;69.32;101066.28;1765965;80;27439;-85
2022/07/08 07:45:21;;;;;;;2.60;2.40;;;;;;;21.85;68.28;101073.38;1765484;80;25831;-84
2022/07/08 07:47:49;;;;;;;2.60;2.40;;;;;;;21.74;67.58;101072.88;1757659;79;26088;-84
2022/07/08 07:50:15;;;;;;;3.10;2.33;;;;;;;21.57;67.03;101076.14;1756678;79;26202;-84
2022/07/08 07:52:42;;;;;;;2.33;2.08;;;;;;;21.41;67.00;101076.94;1756065;80;25786;-84
2022/07/08 07:55:09;;;;;;;2.40;2.12;;;;;;;21.40;67.53;101074.78;1748154;80;27436;-85
2022/07/08 07:57:36;;;;;;;2.35;1.95;;;;;;;21.56;68.37;101074.48;1749439;80;25759;-83
2022/07/08 08:00:10;;;;;;;2.17;2.00;;;;;;;21.77;68.58;101074.30;1752570;80;25801;-85
2022/07/08 08:02:39;;;;;;;2.37;2.17;;;;;;;21.89;67.25;101073.16;1749558;80;26403;-85
2022/07/08 08:05:06;;;;;;;3.72;2.00;;;;;;;21.90;67.48;101080.25;1756718;80;26596;-84
2022/07/08 08:07:33;;;;;;;1.70;1.60;;;;;;;21.97;67.52;101080.08;1755507;80;27467;-86
2022/07/08 08:10:00;;;;;;;1.35;1.30;;;;;;;22.01;66.10;101073.87;1750641;80;25814;-84
2022/07/08 08:12:26;;;;;;;2.55;1.77;;;;;;;21.99;65.75;101074.66;1753752;80;25793;-84
2022/07/08 08:14:52;;;;;;;1.80;1.55;;;;;;;21.97;65.45;101074.09;1746436;80;25905;-84
2022/07/08 08:17:18;;;;;;;1.67;1.40;;;;;;;21.99;66.10;101071.10;1745312;80;26167;-85
2022/07/08 08:19:45;;;;;;;1.35;1.25;;;;;;;22.02;65.92;101077.44;1747933;80;27450;-84
2022/07/08 08:22:11;;;;;;;1.45;1.25;;;;;;;22.04;65.55;101080.20;1748301;80;25792;-84
2022/07/08 08:24:37;;;;;;;1.30;1.05;;;;;;;21.98;64.90;101083.11;1747147;80;25838;-84
2022/07/08 08:27:04;;;;;;;1.32;1.20;;;;;;;21.93;64.35;101077.03;1751527;80;26258;-84
2022/07/08 08:29:30;;;;;;;1.40;1.22;;;;;;;21.94;65.03;101073.77;1758180;80;25940;-84
2022/07/08 08:31:58;;;;;;;1.92;1.32;;;;;;;22.02;64.46;101071.98;1758863;80;27635;-83
2022/07/08 08:34:24;;;;;;;3.25;1.70;;;;;;;22.18;65.70;101067.84;1753739;80;25741;-83
2022/07/08 08:36:50;;;;;;;1.50;1.40;;;;;;;22.39;65.79;101064.84;1756254;80;26539;-86
2022/07/08 08:39:17;;;;;;;2.15;1.15;;;;;;;22.46;64.59;101068.75;1754084;80;26426;-84
2022/07/08 08:41:43;;;;;;;1.47;1.20;;;;;;;22.53;63.92;101062.05;1759980;80;26501;-84
2022/07/08 08:44:10;;;;;;;1.75;1.40;;;;;;;22.50;63.71;101060.34;1761722;80;27507;-84
2022/07/08 08:46:36;;;;;;;1.30;1.20;;;;;;;22.37;63.86;101065.64;1753301;80;25722;-84
2022/07/08 08:49:03;;;;;;;0.88;0.88;;;;;;;22.28;63.93;101067.71;1748353;80;25787;-84
2022/07/08 08:51:32;;;;;;;1.10;1.00;;;;;;;22.12;63.03;101068.86;1750924;80;25937;-84
2022/07/08 08:54:03;;;;;;;1.27;1.17;;;;;;;22.01;62.93;101070.31;1753151;80;25944;-85
2022/07/08 08:56:29;;;;;;;1.50;1.40;;;;;;;21.89;62.92;101069.59;1750856;80;28313;-84
2022/07/08 08:58:57;;;;;;;1.50;1.40;;;;;;;21.84;63.44;101072.23;1751069;80;25817;-84
2022/07/08 09:01:23;;;;;;;1.50;1.27;;;;;;;21.81;63.74;101068.06;1751939;80;25939;-83
2022/07/08 09:03:49;;;;;;;1.57;1.30;;;;;;;21.75;64.12;101075.08;1755165;80;25778;-84
2022/07/08 09:06:15;;;;;;;1.55;1.45;;;;;;;21.76;64.93;101076.72;1748197;80;25734;-84
2022/07/08 09:08:42;;;;;;;1.90;1.70;;;;;;;21.79;64.88;101072.14;1753234;80;27434;-84
2022/07/08 09:11:08;;;;;;;1.80;1.70;;;;;;;21.79;64.20;101078.96;1756318;80;25951;-85
2022/07/08 09:13:34;;;;;;;1.60;1.50;;;;;;;21.82;64.77;101083.40;1750377;80;25907;-84
2022/07/08 09:16:03;;;;;;;2.37;1.35;;;;;;;21.86;64.99;101075.53;1762484;80;25807;-84
2022/07/08 09:18:32;;;;;;;2.30;2.10;;;;;;;21.90;64.50;101078.88;1764414;80;25786;-84
2022/07/08 09:20:59;;;;;;;1.97;1.80;;;;;;;21.93;64.89;101077.03;1760063;80;28103;-84
2022/07/08 09:23:31;;;;;;;4.75;2.20;;;;;;;21.94;64.65;101075.94;1759668;80;25941;-84
2022/07/08 09:26:08;;;;;;;2.08;1.92;;;;;;;21.97;64.50;101074.63;1754595;80;25787;-84
2022/07/08 09:28:39;;;;;;;4.05;2.92;;;;;;;22.05;65.19;101079.64;1758847;80;25445;-84
2022/07/08 09:31:09;;;;;;;2.33;2.12;;;;;;;22.12;64.25;101081.67;1749417;81;25788;-85
2022/07/08 09:33:36;;;;;;;3.95;2.00;;;;;;;22.14;64.47;101079.52;1767590;80;27454;-84
2022/07/08 09:36:05;;;;;;;2.02;1.65;;;;;;;22.14;64.15;101079.52;1751297;80;26570;-84
2022/07/08 09:38:40;;;;;;;2.58;1.90;;;;;;;22.09;63.24;101078.90;1749596;80;25772;-84
2022/07/08 09:41:20;;;;;;;2.22;1.95;;;;;;;22.11;64.09;101073.21;1766793;80;26555;-84
2022/07/08 09:43:49;;;;;;;2.85;2.55;;;;;;;22.15;64.15;101079.81;1757203;80;25798;-84
2022/07/08 09:46:17;;;;;;;2.22;2.00;;;;;;;22.19;64.06;101079.59;1758862;80;28284;-85
2022/07/08 09:48:44;;;;;;;2.37;2.17;;;;;;;22.23;64.20;101076.12;1753415;80;25943;-84
2022/07/08 09:51:11;;;;;;;3.90;2.22;;;;;;;22.23;64.37;101080.21;1750414;80;26024;-84
2022/07/08 09:53:40;;;;;;;4.42;3.05;;;;;;;22.16;64.46;101085.02;1745681;80;25788;-84
2022/07/08 09:56:07;;;;;;;3.40;2.77;;;;;;;22.08;64.89;101090.07;1762898;80;25807;-84
2022/07/08 09:58:36;;;;;;;4.72;2.50;;;;;;;21.94;64.26;101092.31;1746485;80;27663;-84
2022/07/08 10:01:03;;;;;;;6.20;2.50;;;;;;;21.68;65.79;101095.70;1741776;80;26185;-84
2022/07/08 10:03:30;;;;;;;3.30;2.40;;;;;;;21.44;68.45;101099.63;1759719;80;25787;-84
2022/07/08 10:05:56;;;;;;;3.90;2.27;;;;;;;21.12;68.71;101112.11;1766118;80;25884;-84
2022/07/08 10:08:23;;;;;;;3.83;2.50;;;;;;;20.81;70.03;101116.09;1748507;80;26028;-85
2022/07/08 10:10:51;;;;;;;3.35;2.35;;;;;;;20.64;71.01;101110.57;1747181;80;27469;-84
2022/07/08 10:13:21;;;;;;;3.80;2.62;;;;;;;20.48;72.46;101114.58;1763179;80;26486;-84
2022/07/08 10:15:49;;;;;;;3.25;2.67;;;;;;;20.38;73.36;101111.08;1754896;80;25680;-84
2022/07/08 10:18:27;;;;;;;4.03;2.70;;;;;;;20.37;73.92;101102.64;1749799;80;25829;-85
2022/07/08 10:20:57;;;;;;;3.35;3.05;;;;;;;20.42;75.26;101102.73;1761908;80;25350;-85
2022/07/08 10:23:46;;;;;;;3.47;3.17;;;;;;;20.45;75.79;101100.91;1762166;80;28045;-84
2022/07/08 10:26:18;;;;;;;4.55;4.15;;;;;;;20.55;76.44;101101.67;1755229;80;25822;-84
2022/07/08 10:28:44;;;;;;;3.95;3.65;;;;;;;20.72;78.96;101094.41;1762414;80;25866;-84
2022/07/08 10:31:25;;;;;;;6.85;4.55;;;;;;;20.86;79.19;101090.86;1753448;80;25811;-84
2022/07/08 10:34:00;;;;;;;5.25;4.75;;;;;;;20.96;78.77;101087.80;1758870;80;25933;-85
2022/07/08 10:36:26;;;;;;;5.37;4.87;;;;;;;21.00;78.37;101084.87;1749817;80;28318;-84
2022/07/08 10:38:55;;;;;;;6.45;5.65;;;;;;;21.07;77.61;101087.48;1752117;80;25819;-84
2022/07/08 10:41:26;;;;;;;6.15;5.58;;;;;;;21.06;77.21;101083.12;1752505;80;26449;-84
2022/07/08 10:43:57;;;;;;;5.87;5.37;;;;;;;21.03;76.87;101073.53;1757483;80;26257;-84
2022/07/08 10:46:27;;;;;;;;;;;;;;;21.09;77.07;101078.53;1761879;80;26009;-84
2022/07/08 10:48:59;;;;;;;5.90;5.40;;;;;;;21.16;77.36;101075.13;1743492;80;28082;-84
2022/07/08 10:51:31;;;;;;;5.55;5.00;;;;;;;21.19;77.49;101071.94;1751749;80;25872;-83
2022/07/08 10:54:01;;;;;;;5.97;5.37;;;;;;;21.29;77.34;101068.02;1757896;80;25908;-84
2022/07/08 10:56:56;;;;;;;6.42;5.50;;;;;;;21.38;77.09;101061.09;1748055;80;25831;-84
2022/07/08 10:59:35;;;;;;;5.70;5.15;;;;;;;21.45;75.92;101063.11;1756320;80;25971;-83
2022/07/08 11:02:13;;;;;;;6.03;5.03;;;;;;;21.50;76.85;101060.48;1750099;80;27433;-84
2022/07/08 11:04:45;;;;;;;5.50;4.97;;;;;;;21.58;76.40;101052.45;1745153;80;25548;-84
2022/07/08 11:07:26;;;;;;;4.95;4.55;;;;;;;21.57;76.26;101054.34;1766461;80;26159;-84
2022/07/08 11:10:06;;;;;;;;;;;;;;;21.61;75.32;101059.58;1759591;80;25812;-84
2022/07/08 11:12:46;;;;;;;5.90;5.22;;;;;;;21.59;74.99;101052.19;1762063;80;25841;-83
2022/07/08 11:15:17;;;;;;;5.42;4.92;;;;;;;21.59;75.47;101060.37;1757437;80;27640;-84
2022/07/08 11:17:46;;;;;;;5.00;4.60;;;;;;;21.70;75.90;101049.92;1763996;80;25967;-83
2022/07/08 11:20:15;;;;;;;4.97;4.47;;;;;;;21.85;75.46;101052.08;1757646;80;26216;-83
2022/07/08 11:22:44;;;;;;;4.90;4.50;;;;;;;21.95;74.51;101053.05;1757730;80;25797;-84
2022/07/08 11:25:14;;;;;;;5.20;4.60;;;;;;;22.06;75.00;101051.30;1758623;78;25824;-83
2022/07/08 11:27:41;;;;;;;6.67;3.95;;;;;;;22.11;73.52;101050.82;1761008;78;27502;-84
2022/07/08 11:30:12;;;;;;;4.62;4.15;;;;;;;22.16;73.19;101050.07;1764977;78;25921;-83